createdAt,value
2018-07-15T00:01:36.992Z,99.90
2018-07-15T00:04:06.044Z,99.90
2018-07-15T00:06:35.127Z,99.90
2018-07-15T00:11:33.945Z,99.90
2018-07-15T00:14:03.029Z,99.90
2018-07-15T00:16:32.085Z,99.90
2018-07-15T00:19:01.630Z,99.90
2018-07-15T00:21:31.067Z,99.90
2018-07-15T00:24:00.663Z,99.90
2018-07-15T00:26:30.092Z,99.90
2018-07-15T00:28:59.428Z,99.90
2018-07-15T00:31:28.906Z,99.90
2018-07-15T00:33:58.321Z,99.90
2018-07-15T00:36:27.725Z,99.90
2018-07-15T00:38:57.112Z,99.90
2018-07-15T00:41:26.622Z,99.90
2018-07-15T00:43:56.134Z,99.90
2018-07-15T00:46:25.492Z,99.90
2018-07-15T00:48:55.000Z,99.90
2018-07-15T00:51:24.539Z,99.90
2018-07-15T00:53:53.980Z,99.90
2018-07-15T00:56:23.390Z,99.90
2018-07-15T00:58:53.547Z,99.90
2018-07-15T01:01:23.017Z,99.90
2018-07-15T01:03:52.374Z,99.90
2018-07-15T01:06:21.730Z,99.90
2018-07-15T01:08:51.147Z,99.90
2018-07-15T01:11:20.657Z,99.90
2018-07-15T01:13:50.489Z,99.90
2018-07-15T01:16:19.920Z,99.90
2018-07-15T01:21:18.327Z,99.90
2018-07-15T01:26:16.866Z,99.90
2018-07-15T01:28:46.394Z,99.90
2018-07-15T01:31:15.848Z,99.90
2018-07-15T01:33:45.185Z,99.90
2018-07-15T01:36:14.747Z,99.90
2018-07-15T01:41:13.156Z,99.90
2018-07-15T01:43:42.546Z,99.90
2018-07-15T01:46:12.104Z,99.90
2018-07-15T01:48:41.857Z,99.90
2018-07-15T01:51:11.272Z,99.90
2018-07-15T01:53:40.922Z,99.90
2018-07-15T01:56:10.376Z,99.90
2018-07-15T01:58:39.870Z,99.90
2018-07-15T02:03:38.261Z,99.90
2018-07-15T02:08:36.762Z,99.90
2018-07-15T02:13:35.043Z,99.90
2018-07-15T02:16:04.447Z,99.90
2018-07-15T02:18:33.878Z,99.90
2018-07-15T02:21:03.236Z,99.90
2018-07-15T02:23:32.567Z,99.90
2018-07-15T02:26:01.920Z,99.90
2018-07-15T02:28:31.395Z,99.90
2018-07-15T02:31:00.818Z,99.90
2018-07-15T02:33:31.100Z,99.90
2018-07-15T02:38:29.297Z,99.90
2018-07-15T02:43:27.686Z,99.90
2018-07-15T02:45:57.061Z,99.90
2018-07-15T02:48:26.366Z,99.90
2018-07-15T02:53:24.741Z,99.90
2018-07-15T02:55:54.264Z,99.90
2018-07-15T02:58:23.746Z,99.90
2018-07-15T03:00:53.191Z,99.90
2018-07-15T03:03:22.730Z,99.90
2018-07-15T03:05:52.239Z,99.90
2018-07-15T03:08:21.718Z,99.90
2018-07-15T03:10:51.174Z,99.90
2018-07-15T03:13:20.173Z,99.90
2018-07-15T03:18:18.502Z,99.90
2018-07-15T03:20:47.854Z,99.90
2018-07-15T03:23:17.223Z,99.90
2018-07-15T03:25:46.644Z,99.90
2018-07-15T03:28:16.331Z,99.90
2018-07-15T03:30:45.673Z,99.90
2018-07-15T03:33:15.026Z,99.90
2018-07-15T03:35:44.444Z,99.90
2018-07-15T03:38:13.827Z,99.90
2018-07-15T03:40:43.417Z,99.90
2018-07-15T03:43:12.782Z,99.90
2018-07-15T03:45:42.132Z,99.90
2018-07-15T03:48:11.584Z,99.90
2018-07-15T03:50:40.989Z,99.90
2018-07-15T03:53:10.369Z,99.90
2018-07-15T03:55:39.755Z,99.90
2018-07-15T03:58:10.013Z,99.90
2018-07-15T04:00:39.455Z,99.90
2018-07-15T04:03:08.803Z,99.90
2018-07-15T04:05:38.225Z,99.90
2018-07-15T04:08:07.830Z,99.90
2018-07-15T04:10:37.271Z,99.90
2018-07-15T04:13:06.741Z,99.90
2018-07-15T04:15:36.127Z,99.90
2018-07-15T04:18:06.517Z,99.90
2018-07-15T04:20:36.842Z,99.90
2018-07-15T04:23:06.863Z,99.90
2018-07-15T04:25:36.282Z,99.90
2018-07-15T04:28:05.824Z,99.90
2018-07-15T04:30:35.310Z,99.90
2018-07-15T04:33:04.675Z,99.90
2018-07-15T04:38:03.095Z,99.90
2018-07-15T04:40:32.379Z,99.90
2018-07-15T04:45:30.709Z,99.90
2018-07-15T04:48:00.077Z,99.90
2018-07-15T04:50:30.033Z,99.90
2018-07-15T04:52:59.377Z,99.90
2018-07-15T04:55:28.717Z,99.90
2018-07-15T04:57:58.829Z,99.90
2018-07-15T05:00:28.337Z,99.90
2018-07-15T05:02:57.723Z,99.90
2018-07-15T05:05:27.167Z,99.90
2018-07-15T05:07:57.837Z,99.90
2018-07-15T05:10:27.233Z,99.90
2018-07-15T05:12:56.587Z,99.90
2018-07-15T05:15:26.150Z,99.90
2018-07-15T05:17:55.653Z,99.90
2018-07-15T05:20:25.105Z,99.90
2018-07-15T05:22:54.486Z,99.90
2018-07-15T05:27:52.817Z,99.90
2018-07-15T05:30:22.911Z,99.90
2018-07-15T05:32:52.412Z,99.90
2018-07-15T05:35:21.828Z,99.90
2018-07-15T05:37:51.233Z,99.90
2018-07-15T05:40:20.625Z,99.90
2018-07-15T05:42:50.072Z,99.90
2018-07-15T05:45:19.459Z,99.90
2018-07-15T05:47:49.154Z,99.90
2018-07-15T05:50:18.659Z,99.90
2018-07-15T05:52:48.005Z,99.90
2018-07-15T05:55:17.423Z,99.90
2018-07-15T05:57:46.848Z,99.90
2018-07-15T06:00:16.171Z,99.90
2018-07-15T06:02:45.781Z,99.90
2018-07-15T06:05:15.120Z,99.90
2018-07-15T06:07:44.682Z,99.90
2018-07-15T06:10:14.265Z,99.90
2018-07-15T06:12:43.625Z,99.90
2018-07-15T06:17:42.004Z,99.90
2018-07-15T06:20:11.389Z,99.90
2018-07-15T06:22:41.051Z,99.90
2018-07-15T06:25:10.595Z,99.90
2018-07-15T06:27:39.939Z,99.90
2018-07-15T06:32:38.365Z,99.90
2018-07-15T06:35:07.931Z,99.90
2018-07-15T06:37:37.382Z,99.90
2018-07-15T06:40:07.315Z,99.90
2018-07-15T06:42:37.695Z,99.90
2018-07-15T06:45:07.190Z,99.90
2018-07-15T06:47:37.412Z,99.90
2018-07-15T06:50:06.812Z,99.90
2018-07-15T06:52:36.182Z,99.90
2018-07-15T06:55:06.047Z,99.90
2018-07-15T06:57:35.567Z,99.90
2018-07-15T07:00:05.144Z,99.90
2018-07-15T07:05:03.446Z,99.90
2018-07-15T07:07:32.822Z,99.90
2018-07-15T07:10:02.180Z,99.90
2018-07-15T07:12:31.684Z,99.90
2018-07-15T07:15:01.038Z,99.90
2018-07-15T07:17:30.386Z,99.90
2018-07-15T07:19:59.756Z,99.90
2018-07-15T07:22:29.182Z,99.90
2018-07-15T07:24:58.571Z,99.90
2018-07-15T07:27:27.932Z,99.90
2018-07-15T07:29:57.425Z,99.90
2018-07-15T07:32:26.765Z,99.90
2018-07-15T07:34:56.148Z,99.90
2018-07-15T07:37:25.590Z,99.90
2018-07-15T07:39:55.042Z,99.90
2018-07-15T07:42:24.690Z,99.90
2018-07-15T07:44:54.274Z,99.90
2018-07-15T07:47:23.734Z,99.90
2018-07-15T07:49:53.147Z,99.90
2018-07-15T07:52:22.633Z,99.90
2018-07-15T07:54:52.112Z,99.90
2018-07-15T07:57:21.495Z,99.90
2018-07-15T07:59:51.063Z,99.90
2018-07-15T08:02:20.558Z,99.90
2018-07-15T08:04:50.001Z,99.90
2018-07-15T08:09:48.331Z,99.90
2018-07-15T08:12:17.735Z,99.90
2018-07-15T08:14:47.191Z,99.90
2018-07-15T08:17:16.627Z,99.90
2018-07-15T08:19:46.092Z,99.90
2018-07-15T08:22:15.424Z,99.90
2018-07-15T08:24:44.853Z,97.00
2018-07-15T08:27:14.310Z,95.90
2018-07-15T08:29:53.932Z,95.10
2018-07-15T08:32:23.658Z,94.50
2018-07-15T08:34:55.829Z,94.30
2018-07-15T08:39:54.484Z,90.00
2018-07-15T08:42:23.990Z,85.50
2018-07-15T08:44:53.518Z,90.40
2018-07-15T08:47:23.004Z,86.90
2018-07-15T08:49:52.522Z,83.10
2018-07-15T08:52:21.993Z,85.20
2018-07-15T08:54:51.522Z,80.90
2018-07-15T08:57:21.808Z,77.80
2018-07-15T08:59:51.863Z,81.40
2018-07-15T09:02:21.377Z,76.60
2018-07-15T09:04:51.585Z,67.60
2018-07-15T09:07:21.034Z,66.60
2018-07-15T09:09:50.581Z,67.80
2018-07-15T09:12:20.038Z,71.00
2018-07-15T09:14:49.408Z,67.60
2018-07-15T09:17:19.011Z,71.50
2018-07-15T09:19:48.522Z,67.60
2018-07-15T09:22:18.002Z,66.70
2018-07-15T09:24:47.416Z,64.30
2018-07-15T09:27:16.780Z,62.30
2018-07-15T09:29:46.221Z,62.20
2018-07-15T09:32:15.668Z,61.50
2018-07-15T09:34:45.018Z,70.80
2018-07-15T09:37:14.442Z,70.30
2018-07-15T09:39:43.937Z,60.70
2018-07-15T09:42:13.282Z,63.20
2018-07-15T09:47:11.654Z,58.30
2018-07-15T09:49:41.035Z,61.20
2018-07-15T09:52:10.516Z,59.60
2018-07-15T09:54:39.966Z,60.40
2018-07-15T09:57:09.338Z,70.30
2018-07-15T09:59:38.824Z,67.20
2018-07-15T10:02:08.215Z,68.80
2018-07-15T10:04:37.577Z,68.90
2018-07-15T10:07:06.932Z,67.10
2018-07-15T10:09:36.341Z,61.80
2018-07-15T10:12:05.801Z,63.90
2018-07-15T10:14:35.615Z,57.00
2018-07-15T10:19:34.151Z,60.10
2018-07-15T10:22:03.491Z,55.90
2018-07-15T10:24:32.856Z,51.90
2018-07-15T10:27:02.181Z,55.90
2018-07-15T10:29:31.675Z,52.80
2018-07-15T10:32:01.270Z,55.80
2018-07-15T10:34:30.803Z,55.00
2018-07-15T10:37:00.325Z,50.20
2018-07-15T10:41:58.654Z,51.50
2018-07-15T10:44:28.719Z,52.70
2018-07-15T10:46:58.048Z,53.50
2018-07-15T10:49:27.445Z,52.20
2018-07-15T10:51:56.793Z,50.10
2018-07-15T10:54:26.177Z,49.90
2018-07-15T10:56:55.660Z,49.20
2018-07-15T11:01:54.063Z,51.50
2018-07-15T11:04:23.465Z,50.80
2018-07-15T11:06:52.965Z,48.80
2018-07-15T11:09:22.389Z,46.10
2018-07-15T11:11:51.752Z,47.40
2018-07-15T11:16:50.015Z,51.90
2018-07-15T11:19:19.354Z,52.10
2018-07-15T11:21:48.729Z,47.80
2018-07-15T11:24:18.193Z,46.00
2018-07-15T11:26:47.797Z,47.40
2018-07-15T11:29:17.202Z,50.80
2018-07-15T11:31:46.615Z,52.10
2018-07-15T11:34:16.110Z,51.40
2018-07-15T11:36:45.605Z,55.90
2018-07-15T11:39:14.967Z,54.00
2018-07-15T11:44:13.281Z,50.50
2018-07-15T11:49:12.033Z,48.20
2018-07-15T11:51:41.395Z,46.10
2018-07-15T11:54:10.827Z,44.30
2018-07-15T11:56:40.218Z,47.10
2018-07-15T11:59:09.580Z,42.20
2018-07-15T12:04:08.030Z,43.80
2018-07-15T12:06:37.438Z,46.20
2018-07-15T12:09:07.153Z,45.60
2018-07-15T12:11:36.620Z,42.20
2018-07-15T12:14:07.036Z,40.80
2018-07-15T12:16:36.472Z,39.20
2018-07-15T12:19:06.756Z,39.70
2018-07-15T12:21:36.188Z,37.50
2018-07-15T12:24:05.816Z,36.70
2018-07-15T12:26:35.259Z,35.80
2018-07-15T12:31:33.933Z,39.20
2018-07-15T12:34:04.786Z,39.90
2018-07-15T12:36:34.290Z,40.20
2018-07-15T12:39:04.541Z,41.00
2018-07-15T12:41:34.015Z,37.20
2018-07-15T12:44:03.622Z,37.00
2018-07-15T12:49:02.020Z,39.40
2018-07-15T12:51:31.662Z,38.50
2018-07-15T12:54:01.069Z,37.40
2018-07-15T12:56:30.600Z,35.20
2018-07-15T12:58:59.970Z,34.80
2018-07-15T13:01:29.326Z,35.30
2018-07-15T13:03:58.835Z,37.50
2018-07-15T13:06:28.309Z,38.00
2018-07-15T13:08:57.828Z,37.90
2018-07-15T13:11:27.245Z,39.60
2018-07-15T13:13:56.765Z,38.70
2018-07-15T13:18:55.235Z,36.00
2018-07-15T13:21:24.721Z,34.80
2018-07-15T13:23:54.105Z,35.80
2018-07-15T13:26:23.457Z,35.50
2018-07-15T13:28:52.878Z,33.90
2018-07-15T13:31:22.333Z,35.50
2018-07-15T13:33:52.526Z,38.00
2018-07-15T13:36:21.903Z,36.10
2018-07-15T13:38:51.282Z,34.90
2018-07-15T13:41:20.684Z,35.70
2018-07-15T13:43:50.069Z,34.60
2018-07-15T13:46:19.745Z,34.60
2018-07-15T13:48:49.250Z,34.10
2018-07-15T13:51:18.663Z,34.60
2018-07-15T13:53:48.268Z,35.50
2018-07-15T13:56:17.617Z,36.40
2018-07-15T13:58:47.011Z,36.90
2018-07-15T14:01:16.403Z,37.00
2018-07-15T14:03:45.812Z,37.30
2018-07-15T14:06:15.228Z,38.60
2018-07-15T14:08:45.315Z,37.40
2018-07-15T14:11:14.776Z,37.60
2018-07-15T14:13:44.140Z,36.70
2018-07-15T14:16:13.868Z,36.40
2018-07-15T14:18:43.209Z,37.00
2018-07-15T14:21:12.527Z,35.90
2018-07-15T14:23:42.213Z,35.70
2018-07-15T14:26:11.782Z,36.20
2018-07-15T14:28:41.162Z,37.60
2018-07-15T14:31:10.651Z,37.10
2018-07-15T14:33:40.242Z,38.90
2018-07-15T14:36:09.810Z,36.90
2018-07-15T14:38:39.167Z,37.40
2018-07-15T14:41:08.689Z,36.90
2018-07-15T14:43:38.175Z,37.80
2018-07-15T14:46:07.559Z,38.00
2018-07-15T14:48:37.012Z,37.00
2018-07-15T14:51:06.606Z,37.10
2018-07-15T14:53:36.335Z,36.70
2018-07-15T14:56:05.876Z,35.40
2018-07-15T14:58:35.229Z,36.10
2018-07-15T15:01:04.677Z,36.00
2018-07-15T15:03:34.197Z,36.00
2018-07-15T15:06:03.591Z,34.90
2018-07-15T15:08:33.171Z,34.60
2018-07-15T15:13:31.518Z,36.60
2018-07-15T15:16:00.943Z,34.80
2018-07-15T15:18:30.316Z,36.30
2018-07-15T15:21:00.370Z,35.60
2018-07-15T15:23:29.819Z,36.30
2018-07-15T15:25:59.279Z,35.40
2018-07-15T15:28:28.720Z,35.50
2018-07-15T15:30:58.479Z,35.50
2018-07-15T15:33:28.072Z,34.90
2018-07-15T15:35:57.455Z,34.60
2018-07-15T15:38:26.895Z,33.80
2018-07-15T15:40:56.305Z,33.90
2018-07-15T15:43:25.811Z,35.00
2018-07-15T15:45:55.307Z,34.50
2018-07-15T15:48:24.777Z,33.50
2018-07-15T15:50:54.233Z,34.10
2018-07-15T15:53:23.569Z,33.50
2018-07-15T15:55:52.987Z,33.00
2018-07-15T15:58:22.655Z,32.60
2018-07-15T16:00:52.169Z,32.50
2018-07-15T16:03:21.562Z,31.30
2018-07-15T16:08:19.989Z,32.10
2018-07-15T16:10:49.393Z,32.70
2018-07-15T16:13:18.876Z,32.30
2018-07-15T16:18:17.325Z,31.60
2018-07-15T16:20:46.796Z,31.80
2018-07-15T16:23:16.450Z,32.00
2018-07-15T16:25:45.845Z,31.30
2018-07-15T16:28:15.782Z,31.70
2018-07-15T16:30:45.208Z,31.60
2018-07-15T16:33:14.592Z,32.60
2018-07-15T16:38:13.286Z,32.40
2018-07-15T16:40:43.020Z,32.40
2018-07-15T16:43:12.420Z,32.80
2018-07-15T16:45:41.862Z,32.40
2018-07-15T16:48:11.380Z,32.00
2018-07-15T16:50:40.976Z,31.80
2018-07-15T16:53:10.360Z,32.50
2018-07-15T16:55:39.845Z,31.60
2018-07-15T16:58:09.219Z,31.20
2018-07-15T17:03:07.701Z,31.80
2018-07-15T17:05:37.097Z,30.70
2018-07-15T17:08:06.607Z,30.70
2018-07-15T17:10:36.046Z,30.80
2018-07-15T17:13:05.903Z,30.90
2018-07-15T17:15:35.437Z,31.50
2018-07-15T17:18:05.081Z,31.60
2018-07-15T17:25:32.619Z,32.50
2018-07-15T17:28:01.974Z,32.80
2018-07-15T17:30:31.425Z,32.90
2018-07-15T17:33:01.030Z,30.80
2018-07-15T17:35:30.625Z,30.60
2018-07-15T17:38:00.236Z,30.70
2018-07-15T17:40:29.735Z,30.50
2018-07-15T17:42:59.893Z,31.00
2018-07-15T17:45:29.381Z,31.20
2018-07-15T17:47:58.876Z,31.40
2018-07-15T17:50:28.262Z,31.40
2018-07-15T17:52:57.959Z,31.50
2018-07-15T17:55:27.379Z,31.50
2018-07-15T17:57:56.728Z,31.80
2018-07-15T18:00:26.353Z,32.10
2018-07-15T18:05:24.890Z,32.50
2018-07-15T18:07:54.323Z,32.30
2018-07-15T18:10:23.860Z,33.20
2018-07-15T18:12:53.208Z,32.70
2018-07-15T18:15:22.767Z,32.90
2018-07-15T18:20:21.113Z,32.80
2018-07-15T18:22:50.742Z,32.40
2018-07-15T18:25:20.175Z,33.90
2018-07-15T18:27:49.529Z,33.40
2018-07-15T18:30:18.995Z,33.30
2018-07-15T18:32:48.450Z,33.80
2018-07-15T18:35:17.979Z,34.00
2018-07-15T18:42:45.415Z,35.60
2018-07-15T18:45:14.859Z,36.00
2018-07-15T18:50:13.434Z,37.90
2018-07-15T18:52:43.005Z,37.90
2018-07-15T18:55:12.554Z,39.20
2018-07-15T18:57:41.975Z,39.20
2018-07-15T19:00:11.521Z,39.50
2018-07-15T19:02:40.913Z,40.80
2018-07-15T19:05:11.062Z,42.00
2018-07-15T19:07:40.764Z,42.20
2018-07-15T19:10:10.664Z,43.20
2018-07-15T19:12:40.206Z,42.10
2018-07-15T19:15:09.619Z,43.30
2018-07-15T19:17:39.749Z,43.40
2018-07-15T19:20:09.197Z,44.20
2018-07-15T19:22:38.535Z,44.40
2018-07-15T19:25:08.044Z,44.80
2018-07-15T19:27:37.546Z,45.90
2018-07-15T19:30:07.137Z,47.80
2018-07-15T19:32:36.611Z,47.80
2018-07-15T19:35:07.027Z,48.80
2018-07-15T19:37:36.661Z,47.80
2018-07-15T19:40:06.462Z,48.80
2018-07-15T19:42:35.888Z,49.40
2018-07-15T19:45:05.481Z,49.80
2018-07-15T19:47:34.808Z,50.80
2018-07-15T19:50:04.276Z,52.20
2018-07-15T19:52:33.692Z,53.80
2018-07-15T19:55:03.044Z,53.30
2018-07-15T19:57:32.675Z,54.90
2018-07-15T20:00:02.055Z,55.60
2018-07-15T20:02:31.396Z,55.80
2018-07-15T20:05:00.786Z,57.20
2018-07-15T20:07:30.203Z,58.60
2018-07-15T20:09:59.662Z,58.90
2018-07-15T20:12:29.061Z,58.60
2018-07-15T20:14:58.525Z,59.40
2018-07-15T20:17:28.197Z,60.20
2018-07-15T20:19:57.847Z,60.50
2018-07-15T20:22:30.248Z,62.20
2018-07-15T20:24:59.648Z,62.00
2018-07-15T20:27:29.044Z,63.00
2018-07-15T20:29:58.555Z,64.40
2018-07-15T20:32:29.640Z,64.70
2018-07-15T20:34:59.063Z,64.30
2018-07-15T20:37:28.567Z,67.70
2018-07-15T20:39:58.089Z,65.80
2018-07-15T20:42:27.490Z,64.90
2018-07-15T20:44:56.974Z,66.50
2018-07-15T20:47:26.690Z,70.10
2018-07-15T20:49:56.098Z,69.20
2018-07-15T20:52:25.811Z,71.70
2018-07-15T20:54:55.289Z,69.50
2018-07-15T20:57:25.096Z,69.20
2018-07-15T20:59:54.633Z,68.50
2018-07-15T21:02:24.137Z,69.00
2018-07-15T21:04:53.642Z,69.40
2018-07-15T21:07:24.080Z,70.20
2018-07-15T21:09:53.617Z,70.00
2018-07-15T21:12:23.073Z,73.70
2018-07-15T21:14:53.146Z,74.20
2018-07-15T21:17:22.497Z,72.50
2018-07-15T21:19:51.819Z,74.60
2018-07-15T21:22:21.302Z,76.60
2018-07-15T21:24:50.804Z,78.60
2018-07-15T21:27:20.147Z,79.60
2018-07-15T21:29:49.561Z,78.90
2018-07-15T21:32:19.113Z,72.60
2018-07-15T21:34:48.486Z,72.50
2018-07-15T21:37:18.026Z,74.60
2018-07-15T21:39:47.491Z,74.80
2018-07-15T21:42:16.878Z,74.60
2018-07-15T21:44:46.319Z,76.70
2018-07-15T21:47:16.004Z,78.80
2018-07-15T21:52:14.370Z,79.90
2018-07-15T21:54:43.974Z,79.50
2018-07-15T21:57:13.982Z,80.70
2018-07-15T21:59:43.312Z,82.50
2018-07-15T22:02:14.057Z,84.40
2018-07-15T22:04:43.588Z,85.40
2018-07-15T22:07:24.269Z,90.00
2018-07-15T22:10:10.760Z,90.70
2018-07-15T22:12:40.100Z,91.20
2018-07-15T22:15:09.485Z,91.50
2018-07-15T22:17:38.993Z,91.40
2018-07-15T22:20:08.557Z,91.30
2018-07-15T22:22:38.129Z,92.10
2018-07-15T22:25:07.573Z,91.20
2018-07-15T22:27:37.106Z,91.30
2018-07-15T22:30:06.585Z,91.90
2018-07-15T22:32:36.050Z,91.90
2018-07-15T22:35:05.456Z,92.30
2018-07-15T22:40:03.936Z,94.00
2018-07-15T22:42:33.434Z,94.40
2018-07-15T22:45:02.802Z,95.20
2018-07-15T22:47:32.174Z,95.90
2018-07-15T22:50:01.616Z,96.00
2018-07-15T22:52:31.286Z,96.10
2018-07-15T22:55:00.717Z,96.60
2018-07-15T22:57:30.205Z,96.80
2018-07-15T22:59:59.650Z,97.20
2018-07-15T23:02:29.094Z,97.50
2018-07-15T23:07:58.357Z,98.20
2018-07-15T23:10:27.766Z,97.90
2018-07-15T23:12:57.266Z,98.10
2018-07-15T23:15:27.220Z,98.50
2018-07-15T23:17:56.581Z,99.40
2018-07-15T23:20:26.412Z,99.90
2018-07-15T23:22:55.798Z,99.80
2018-07-15T23:25:25.208Z,99.90
2018-07-15T23:27:54.599Z,99.90
2018-07-15T23:30:24.040Z,99.90
2018-07-15T23:32:53.521Z,99.90
2018-07-15T23:35:22.882Z,99.90
2018-07-15T23:37:52.258Z,99.90
2018-07-15T23:40:21.633Z,99.90
2018-07-15T23:42:51.666Z,99.90
2018-07-15T23:45:21.356Z,99.90
2018-07-15T23:47:50.744Z,99.90
2018-07-15T23:50:20.164Z,99.90
2018-07-15T23:52:49.691Z,99.90
2018-07-15T23:55:19.280Z,99.90
2018-07-15T23:57:48.765Z,99.90
